createdAt,value
2022-08-26T00:01:58.539Z,19.45
2022-08-26T00:04:28.912Z,19.34
2022-08-26T00:06:57.688Z,19.43
2022-08-26T00:09:27.794Z,19.46
2022-08-26T00:11:56.256Z,19.46
2022-08-26T00:14:29.968Z,19.43
2022-08-26T00:16:59.565Z,19.39
2022-08-26T00:19:28.144Z,19.40
2022-08-26T00:21:56.335Z,19.50
2022-08-26T00:24:24.815Z,19.47
2022-08-26T00:26:54.926Z,19.44
2022-08-26T00:29:23.883Z,19.37
2022-08-26T00:31:51.934Z,19.48
2022-08-26T00:34:19.940Z,19.58
2022-08-26T00:36:51.752Z,19.68
2022-08-26T00:39:21.045Z,19.79
2022-08-26T00:41:50.564Z,19.83
2022-08-26T00:44:21.238Z,19.87
2022-08-26T00:46:52.852Z,19.91
2022-08-26T00:49:26.994Z,19.91
2022-08-26T00:52:02.403Z,19.94
2022-08-26T00:54:36.399Z,19.87
2022-08-26T00:57:08.689Z,19.82
2022-08-26T01:00:06.461Z,19.83
2022-08-26T01:02:37.654Z,19.88
2022-08-26T01:05:11.608Z,19.87
2022-08-26T01:07:40.809Z,19.87
2022-08-26T01:10:14.089Z,19.89
2022-08-26T01:12:47.618Z,19.91
2022-08-26T01:15:26.547Z,19.88
2022-08-26T01:17:58.991Z,19.87
2022-08-26T01:20:35.228Z,19.95
2022-08-26T01:23:08.960Z,19.96
2022-08-26T01:25:50.068Z,19.95
2022-08-26T01:28:22.735Z,19.98
2022-08-26T01:30:52.984Z,20.01
2022-08-26T01:33:26.636Z,19.98
2022-08-26T01:35:54.640Z,20.08
2022-08-26T01:38:25.219Z,20.06
2022-08-26T01:40:53.826Z,20.06
2022-08-26T01:43:27.284Z,20.16
2022-08-26T01:45:57.009Z,20.13
2022-08-26T01:48:29.521Z,20.14
2022-08-26T01:50:57.914Z,20.11
2022-08-26T01:53:29.424Z,20.11
2022-08-26T01:56:00.072Z,20.10
2022-08-26T01:58:32.024Z,20.10
2022-08-26T02:01:01.101Z,20.07
2022-08-26T02:03:31.167Z,20.11
2022-08-26T02:06:04.621Z,20.11
2022-08-26T02:08:40.500Z,20.06
2022-08-26T02:11:08.936Z,20.04
2022-08-26T02:13:43.881Z,20.11
2022-08-26T02:16:13.778Z,20.14
2022-08-26T02:18:45.016Z,20.12
2022-08-26T02:21:15.182Z,20.14
2022-08-26T02:23:45.539Z,20.17
2022-08-26T02:26:17.884Z,20.05
2022-08-26T02:28:53.367Z,20.09
2022-08-26T02:31:27.384Z,20.06
2022-08-26T02:33:55.608Z,20.17
2022-08-26T02:36:30.230Z,20.15
2022-08-26T02:39:00.693Z,20.09
2022-08-26T02:41:28.953Z,20.15
2022-08-26T02:43:58.148Z,20.09
2022-08-26T02:46:27.848Z,20.10
2022-08-26T02:48:59.941Z,20.14
2022-08-26T02:51:28.411Z,20.11
2022-08-26T02:54:01.206Z,20.08
2022-08-26T02:56:29.928Z,20.14
2022-08-26T02:58:57.948Z,20.10
2022-08-26T03:01:29.985Z,20.22
2022-08-26T03:03:58.613Z,20.13
2022-08-26T03:06:27.041Z,20.15
2022-08-26T03:08:55.884Z,20.21
2022-08-26T03:11:30.939Z,20.21
2022-08-26T03:14:03.675Z,20.20
2022-08-26T03:16:33.866Z,20.20
2022-08-26T03:19:03.854Z,20.15
2022-08-26T03:21:39.940Z,20.19
2022-08-26T03:24:10.382Z,20.29
2022-08-26T03:26:40.951Z,20.25
2022-08-26T03:29:39.128Z,20.26
2022-08-26T03:32:07.255Z,20.24
2022-08-26T03:34:47.982Z,20.21
2022-08-26T03:37:16.275Z,20.32
2022-08-26T03:39:47.179Z,20.34
2022-08-26T03:42:21.498Z,20.29
2022-08-26T03:44:49.715Z,20.33
2022-08-26T03:47:17.765Z,20.26
2022-08-26T03:49:45.912Z,20.26
2022-08-26T03:52:15.437Z,20.25
2022-08-26T03:54:46.759Z,20.27
2022-08-26T03:57:24.588Z,20.28
2022-08-26T03:59:53.701Z,20.23
2022-08-26T04:02:40.652Z,20.12
2022-08-26T04:05:10.867Z,20.20
2022-08-26T04:07:39.239Z,20.28
2022-08-26T04:10:08.444Z,20.13
2022-08-26T04:12:39.788Z,20.27
2022-08-26T04:15:10.833Z,20.23
2022-08-26T04:17:38.848Z,20.10
2022-08-26T04:20:08.462Z,20.20
2022-08-26T04:22:37.114Z,20.18
2022-08-26T04:25:06.843Z,20.18
2022-08-26T04:27:36.171Z,20.21
2022-08-26T04:30:07.608Z,20.22
2022-08-26T04:32:39.396Z,20.19
2022-08-26T04:35:13.815Z,20.20
2022-08-26T04:37:44.030Z,20.21
2022-08-26T04:40:13.727Z,20.18
2022-08-26T04:42:43.029Z,20.03
2022-08-26T04:45:14.057Z,20.07
2022-08-26T04:47:42.293Z,20.04
2022-08-26T04:50:10.966Z,20.12
2022-08-26T04:52:39.048Z,20.07
2022-08-26T04:55:11.347Z,20.01
2022-08-26T04:57:41.495Z,20.01
2022-08-26T05:00:15.388Z,20.01
2022-08-26T05:02:43.967Z,19.95
2022-08-26T05:05:15.875Z,20.06
2022-08-26T05:07:47.116Z,20.08
2022-08-26T05:10:18.174Z,19.91
2022-08-26T05:12:50.514Z,20.05
2022-08-26T05:15:20.350Z,20.02
2022-08-26T05:17:51.616Z,20.06
2022-08-26T05:20:26.158Z,20.04
2022-08-26T05:23:01.510Z,20.19
2022-08-26T05:25:30.000Z,20.13
2022-08-26T05:27:58.791Z,20.05
2022-08-26T05:30:31.625Z,20.17
2022-08-26T05:33:01.566Z,20.12
2022-08-26T05:35:33.718Z,20.17
2022-08-26T05:38:03.776Z,20.20
2022-08-26T05:40:36.561Z,20.10
2022-08-26T05:43:10.315Z,20.19
2022-08-26T05:45:45.871Z,20.26
2022-08-26T05:48:22.846Z,20.23
2022-08-26T05:50:56.766Z,20.28
2022-08-26T05:53:26.588Z,20.40
2022-08-26T05:55:58.089Z,20.40
2022-08-26T05:58:32.549Z,20.47
2022-08-26T06:01:08.898Z,20.39
2022-08-26T06:03:40.247Z,20.52
2022-08-26T06:06:12.330Z,20.61
2022-08-26T06:08:41.436Z,20.67
2022-08-26T06:11:12.880Z,20.71
2022-08-26T06:13:47.691Z,20.62
2022-08-26T06:16:20.352Z,20.62
2022-08-26T06:18:50.988Z,20.65
2022-08-26T06:21:26.230Z,20.83
2022-08-26T06:24:15.086Z,20.79
2022-08-26T06:26:44.416Z,20.73
2022-08-26T06:29:24.150Z,20.81
2022-08-26T06:31:56.189Z,20.74
2022-08-26T06:34:29.918Z,20.80
2022-08-26T06:37:02.495Z,20.82
2022-08-26T06:39:32.729Z,21.20
2022-08-26T06:42:02.727Z,20.87
2022-08-26T06:44:32.419Z,20.91
2022-08-26T06:47:05.189Z,20.91
2022-08-26T06:49:33.275Z,21.24
2022-08-26T06:52:03.619Z,21.42
2022-08-26T06:54:33.016Z,21.20
2022-08-26T06:57:07.135Z,21.24
2022-08-26T06:59:35.440Z,21.11
2022-08-26T07:02:08.844Z,20.94
2022-08-26T07:04:41.747Z,21.02
2022-08-26T07:07:10.496Z,21.09
2022-08-26T07:09:39.012Z,20.90
2022-08-26T07:12:10.321Z,20.90
2022-08-26T07:14:39.377Z,20.80
2022-08-26T07:17:13.746Z,20.92
2022-08-26T07:19:44.272Z,20.97
2022-08-26T07:22:14.415Z,21.12
2022-08-26T07:24:42.705Z,21.07
2022-08-26T07:27:17.499Z,20.96
2022-08-26T07:29:45.984Z,20.78
2022-08-26T07:32:17.118Z,20.91
2022-08-26T07:34:48.128Z,21.04
2022-08-26T07:37:16.592Z,20.86
2022-08-26T07:39:46.115Z,20.85
2022-08-26T07:42:18.471Z,20.85
2022-08-26T07:44:46.662Z,20.72
2022-08-26T07:47:24.789Z,20.75
2022-08-26T07:49:54.260Z,20.83
2022-08-26T07:52:26.407Z,20.86
2022-08-26T07:54:55.243Z,20.90
2022-08-26T07:57:24.285Z,21.02
2022-08-26T07:59:54.957Z,21.01
2022-08-26T08:02:25.911Z,20.90
2022-08-26T08:04:54.727Z,20.98
2022-08-26T08:07:25.724Z,21.17
2022-08-26T08:10:11.441Z,21.19
2022-08-26T08:12:39.860Z,21.19
2022-08-26T08:15:09.452Z,21.25
2022-08-26T08:17:40.688Z,21.05
2022-08-26T08:20:12.155Z,21.06
2022-08-26T08:22:40.076Z,21.26
2022-08-26T08:25:10.480Z,21.31
2022-08-26T08:27:41.028Z,21.35
2022-08-26T08:30:10.792Z,21.06
2022-08-26T08:32:44.358Z,21.02
2022-08-26T08:35:16.126Z,21.22
2022-08-26T08:37:46.129Z,21.39
2022-08-26T08:40:18.265Z,21.35
2022-08-26T08:45:37.158Z,21.51
2022-08-26T08:48:14.206Z,21.31
2022-08-26T08:50:45.777Z,21.48
2022-08-26T08:53:18.606Z,21.25
2022-08-26T08:56:05.539Z,21.09
2022-08-26T08:58:46.890Z,21.27
2022-08-26T09:01:25.860Z,21.24
2022-08-26T09:04:17.140Z,21.49
2022-08-26T09:06:47.778Z,21.09
2022-08-26T09:09:25.146Z,20.83
2022-08-26T09:11:54.375Z,20.94
2022-08-26T09:14:23.094Z,20.88
2022-08-26T09:17:00.258Z,20.77
2022-08-26T09:19:39.964Z,20.91
2022-08-26T09:26:08.198Z,21.05
2022-08-26T09:28:59.092Z,21.35
2022-08-26T09:31:28.802Z,21.31
2022-08-26T09:34:12.787Z,21.20
2022-08-26T09:36:56.372Z,21.47
2022-08-26T09:39:33.425Z,21.75
2022-08-26T09:42:08.459Z,22.25
2022-08-26T09:44:54.637Z,22.00
2022-08-26T09:47:27.275Z,21.62
2022-08-26T09:50:04.239Z,21.85
2022-08-26T09:52:40.646Z,21.62
2022-08-26T09:55:15.709Z,21.52
2022-08-26T09:57:49.695Z,21.70
2022-08-26T10:00:31.470Z,21.51
2022-08-26T10:03:01.295Z,21.27
2022-08-26T10:05:41.452Z,21.27
2022-08-26T10:08:26.974Z,21.26
2022-08-26T10:10:57.216Z,21.17
2022-08-26T10:13:37.587Z,21.41
2022-08-26T10:16:15.598Z,21.36
2022-08-26T10:18:48.865Z,21.36
2022-08-26T10:21:25.377Z,21.24
2022-08-26T10:23:58.606Z,21.30
2022-08-26T10:26:32.515Z,21.51
2022-08-26T10:29:10.390Z,21.53
2022-08-26T10:31:43.668Z,21.51
2022-08-26T10:34:14.036Z,21.66
2022-08-26T10:39:46.050Z,21.68
2022-08-26T10:42:21.476Z,21.89
2022-08-26T10:44:53.069Z,22.40
2022-08-26T10:47:27.168Z,22.12
2022-08-26T10:50:02.877Z,22.01
2022-08-26T10:52:42.029Z,22.24
2022-08-26T10:55:22.169Z,22.79
2022-08-26T10:57:59.401Z,22.62
2022-08-26T11:00:55.989Z,22.47
2022-08-26T11:03:35.720Z,21.73
2022-08-26T11:06:31.340Z,21.82
2022-08-26T11:09:01.676Z,22.15
2022-08-26T11:11:50.681Z,21.45
2022-08-26T11:14:53.590Z,21.27
2022-08-26T11:17:58.439Z,21.15
2022-08-26T11:20:41.600Z,21.16
2022-08-26T11:23:50.797Z,20.96
2022-08-26T11:26:37.608Z,20.95
2022-08-26T11:29:13.849Z,20.64
2022-08-26T11:31:56.809Z,20.80
2022-08-26T11:34:54.043Z,20.83
2022-08-26T11:37:27.317Z,20.88
2022-08-26T11:39:57.560Z,20.79
2022-08-26T11:42:36.978Z,21.10
2022-08-26T11:45:20.061Z,21.01
2022-08-26T11:47:49.638Z,20.74
2022-08-26T11:50:21.274Z,20.63
2022-08-26T11:52:54.808Z,20.74
2022-08-26T11:55:24.339Z,20.87
2022-08-26T11:57:55.960Z,20.93
2022-08-26T12:00:36.073Z,21.25
2022-08-26T12:03:08.945Z,21.23
2022-08-26T12:05:46.395Z,20.87
2022-08-26T12:08:18.647Z,21.00
2022-08-26T12:10:47.036Z,20.85
2022-08-26T12:13:24.986Z,20.75
2022-08-26T12:15:58.021Z,20.48
2022-08-26T12:18:30.740Z,20.47
2022-08-26T12:21:01.708Z,20.33
2022-08-26T12:23:42.130Z,20.33
2022-08-26T12:26:21.654Z,20.42
2022-08-26T12:28:55.850Z,20.42
2022-08-26T12:31:32.636Z,20.45
2022-08-26T12:34:03.060Z,20.49
2022-08-26T12:36:34.369Z,20.49
2022-08-26T12:39:14.802Z,20.11
2022-08-26T12:41:48.085Z,20.09
2022-08-26T12:44:53.816Z,20.16
2022-08-26T12:47:42.771Z,20.10
2022-08-26T12:50:19.146Z,20.08
2022-08-26T12:53:03.082Z,20.39
2022-08-26T12:55:42.391Z,20.57
2022-08-26T12:58:27.317Z,20.86
2022-08-26T13:00:58.837Z,20.90
2022-08-26T13:03:45.319Z,21.08
2022-08-26T13:06:17.583Z,21.49
2022-08-26T13:08:48.754Z,21.99
2022-08-26T13:11:20.522Z,21.56
2022-08-26T13:13:54.316Z,21.94
2022-08-26T13:16:24.511Z,21.76
2022-08-26T13:18:57.426Z,21.20
2022-08-26T13:21:31.950Z,21.19
2022-08-26T13:24:09.432Z,20.74
2022-08-26T13:26:39.703Z,20.92
2022-08-26T13:29:10.474Z,20.99
2022-08-26T13:31:44.315Z,20.90
2022-08-26T13:34:19.988Z,21.08
2022-08-26T13:37:13.060Z,20.83
2022-08-26T13:39:42.817Z,20.65
2022-08-26T13:42:14.198Z,20.77
2022-08-26T13:44:44.348Z,20.55
2022-08-26T13:47:13.290Z,20.65
2022-08-26T13:49:43.633Z,20.50
2022-08-26T13:52:30.090Z,20.42
2022-08-26T13:55:06.784Z,20.48
2022-08-26T13:57:34.684Z,20.48
2022-08-26T14:00:03.535Z,20.55
2022-08-26T14:02:31.505Z,20.79
2022-08-26T14:05:00.888Z,20.78
2022-08-26T14:07:29.075Z,20.76
2022-08-26T14:09:57.141Z,20.65
2022-08-26T14:12:25.795Z,20.73
2022-08-26T14:14:53.963Z,20.75
2022-08-26T14:17:24.544Z,20.70
2022-08-26T14:19:53.623Z,20.80
2022-08-26T14:22:25.823Z,20.65
2022-08-26T14:24:53.953Z,20.61
2022-08-26T14:27:22.043Z,20.72
2022-08-26T14:29:50.047Z,20.73
2022-08-26T14:32:23.501Z,20.71
2022-08-26T14:34:52.017Z,20.73
2022-08-26T14:37:20.737Z,20.56
2022-08-26T14:39:51.835Z,20.71
2022-08-26T14:42:52.771Z,20.47
2022-08-26T14:45:24.643Z,20.59
2022-08-26T14:47:56.496Z,20.54
2022-08-26T14:50:30.677Z,20.52
2022-08-26T14:53:35.865Z,20.02
2022-08-26T14:56:05.733Z,20.04
2022-08-26T14:58:34.894Z,20.19
2022-08-26T15:01:04.414Z,19.95
2022-08-26T15:03:32.420Z,19.90
2022-08-26T15:06:02.772Z,19.76
2022-08-26T15:08:32.643Z,19.92
2022-08-26T15:11:00.681Z,19.94
2022-08-26T15:13:31.550Z,19.76
2022-08-26T15:16:02.236Z,19.70
2022-08-26T15:18:31.943Z,19.77
2022-08-26T15:21:01.432Z,19.77
2022-08-26T15:23:29.253Z,19.74
2022-08-26T15:25:57.310Z,19.70
2022-08-26T15:28:25.429Z,19.82
2022-08-26T15:30:54.807Z,19.78
2022-08-26T15:33:23.157Z,19.75
2022-08-26T15:39:12.969Z,19.68
2022-08-26T15:41:42.142Z,19.62
2022-08-26T15:44:17.044Z,19.54
2022-08-26T15:46:48.266Z,19.54
2022-08-26T15:49:18.574Z,19.42
2022-08-26T15:51:48.153Z,19.57
2022-08-26T15:54:18.316Z,19.40
2022-08-26T15:56:48.523Z,19.42
2022-08-26T15:59:23.669Z,19.63
2022-08-26T16:01:53.926Z,19.88
2022-08-26T16:04:22.795Z,20.03
2022-08-26T16:06:52.156Z,20.26
2022-08-26T16:09:21.288Z,20.07
2022-08-26T16:11:49.214Z,20.08
2022-08-26T16:14:19.253Z,19.74
2022-08-26T16:16:47.368Z,19.66
2022-08-26T16:19:17.307Z,19.56
2022-08-26T16:21:46.471Z,19.58
2022-08-26T16:24:14.797Z,19.53
2022-08-26T16:26:43.933Z,19.51
2022-08-26T16:29:28.078Z,19.56
2022-08-26T16:31:56.007Z,19.51
2022-08-26T16:34:26.273Z,19.50
2022-08-26T16:36:55.258Z,19.67
2022-08-26T16:39:23.224Z,19.60
2022-08-26T16:41:51.075Z,19.67
2022-08-26T16:44:19.140Z,19.72
2022-08-26T16:46:47.336Z,19.87
2022-08-26T16:49:15.463Z,19.90
2022-08-26T16:51:49.967Z,19.51
2022-08-26T16:54:17.875Z,19.69
2022-08-26T16:56:46.668Z,19.66
2022-08-26T16:59:14.540Z,19.54
2022-08-26T17:01:42.525Z,19.62
2022-08-26T17:04:12.577Z,19.70
2022-08-26T17:06:41.282Z,19.78
2022-08-26T17:09:10.856Z,19.79
2022-08-26T17:11:39.196Z,19.78
2022-08-26T17:14:09.953Z,19.64
2022-08-26T17:16:40.120Z,19.77
2022-08-26T17:19:08.602Z,19.61
2022-08-26T17:21:38.208Z,19.52
2022-08-26T17:24:06.848Z,19.49
2022-08-26T17:26:38.023Z,19.41
2022-08-26T17:29:07.273Z,19.45
2022-08-26T17:31:36.135Z,19.44
2022-08-26T17:34:04.270Z,19.38
2022-08-26T17:36:33.257Z,19.41
2022-08-26T17:39:01.556Z,19.38
2022-08-26T17:41:30.030Z,19.24
2022-08-26T17:43:59.492Z,19.33
2022-08-26T17:46:28.156Z,19.29
2022-08-26T17:48:56.575Z,19.20
2022-08-26T17:51:25.883Z,19.15
2022-08-26T17:53:54.388Z,19.16
2022-08-26T17:56:25.686Z,19.14
2022-08-26T17:59:04.084Z,18.96
2022-08-26T18:01:34.817Z,19.08
2022-08-26T18:04:04.620Z,19.07
2022-08-26T18:06:35.380Z,19.02
2022-08-26T18:09:05.093Z,18.94
2022-08-26T18:11:34.964Z,18.93
2022-08-26T18:14:02.992Z,18.92
2022-08-26T18:16:38.333Z,18.87
2022-08-26T18:19:08.063Z,18.88
2022-08-26T18:21:36.850Z,18.77
2022-08-26T18:24:05.756Z,18.75
2022-08-26T18:26:37.277Z,18.68
2022-08-26T18:29:06.304Z,18.67
2022-08-26T18:31:34.924Z,18.66
2022-08-26T18:34:04.067Z,18.55
2022-08-26T18:36:36.598Z,18.55
2022-08-26T18:39:06.297Z,18.60
2022-08-26T18:41:42.598Z,18.55
2022-08-26T18:44:13.702Z,18.44
2022-08-26T18:46:42.923Z,18.45
2022-08-26T18:49:12.969Z,18.44
2022-08-26T18:51:46.837Z,18.37
2022-08-26T18:54:21.815Z,18.40
2022-08-26T18:56:50.071Z,18.36
2022-08-26T18:59:18.334Z,18.35
2022-08-26T19:01:48.085Z,18.35
2022-08-26T19:04:19.287Z,18.30
2022-08-26T19:06:53.354Z,18.26
2022-08-26T19:09:31.648Z,18.19
2022-08-26T19:12:01.421Z,18.28
2022-08-26T19:14:31.222Z,18.17
2022-08-26T19:17:00.493Z,18.20
2022-08-26T19:19:28.751Z,18.20
2022-08-26T19:21:58.283Z,18.11
2022-08-26T19:24:28.107Z,18.13
2022-08-26T19:27:00.445Z,18.08
2022-08-26T19:29:31.968Z,18.08
2022-08-26T19:32:00.493Z,18.06
2022-08-26T19:34:28.807Z,18.02
2022-08-26T19:36:58.860Z,18.02
2022-08-26T19:39:30.093Z,18.06
2022-08-26T19:41:59.323Z,18.03
2022-08-26T19:44:44.928Z,17.99
2022-08-26T19:47:14.051Z,17.93
2022-08-26T19:49:50.089Z,17.92
2022-08-26T19:52:22.630Z,17.94
2022-08-26T19:54:58.930Z,17.90
2022-08-26T19:57:27.945Z,17.92
2022-08-26T19:59:57.056Z,17.88
2022-08-26T20:02:25.060Z,17.92
2022-08-26T20:04:54.532Z,17.88
2022-08-26T20:07:25.800Z,17.79
2022-08-26T20:09:53.769Z,17.81
2022-08-26T20:12:23.172Z,17.68
2022-08-26T20:14:52.503Z,17.62
2022-08-26T20:17:21.379Z,17.50
2022-08-26T20:20:08.098Z,17.38
2022-08-26T20:22:58.603Z,17.22
2022-08-26T20:25:27.928Z,17.16
2022-08-26T20:27:59.352Z,17.17
2022-08-26T20:30:35.773Z,17.00
2022-08-26T20:33:06.151Z,16.97
2022-08-26T20:35:35.590Z,16.97
2022-08-26T20:38:05.707Z,16.91
2022-08-26T20:40:37.956Z,16.90
2022-08-26T20:43:06.583Z,16.78
2022-08-26T20:45:34.747Z,16.73
2022-08-26T20:48:03.294Z,16.64
2022-08-26T20:50:32.634Z,16.57
2022-08-26T20:53:01.510Z,16.52
2022-08-26T20:55:30.735Z,16.50
2022-08-26T20:57:58.811Z,16.36
2022-08-26T21:00:27.821Z,16.42
2022-08-26T21:02:57.411Z,16.44
2022-08-26T21:05:29.655Z,16.46
2022-08-26T21:07:57.839Z,16.49
2022-08-26T21:10:26.283Z,16.49
2022-08-26T21:12:57.519Z,16.50
2022-08-26T21:15:25.598Z,16.58
2022-08-26T21:17:55.864Z,16.57
2022-08-26T21:20:25.236Z,16.50
2022-08-26T21:22:53.497Z,16.49
2022-08-26T21:25:21.931Z,16.49
2022-08-26T21:27:49.923Z,16.40
2022-08-26T21:30:19.301Z,16.41
2022-08-26T21:32:47.306Z,16.37
2022-08-26T21:35:15.553Z,16.26
2022-08-26T21:37:44.562Z,16.18
2022-08-26T21:40:15.572Z,16.09
2022-08-26T21:42:43.668Z,16.05
2022-08-26T21:45:12.788Z,15.93
2022-08-26T21:47:42.323Z,15.86
2022-08-26T21:50:10.832Z,15.73
2022-08-26T21:52:39.337Z,15.68
2022-08-26T21:55:08.921Z,15.49
2022-08-26T21:57:38.137Z,15.27
2022-08-26T22:00:09.481Z,15.26
2022-08-26T22:02:38.669Z,15.26
2022-08-26T22:05:13.212Z,14.98
2022-08-26T22:07:51.915Z,14.94
2022-08-26T22:10:21.146Z,14.92
2022-08-26T22:12:49.326Z,14.88
2022-08-26T22:15:20.305Z,14.84
2022-08-26T22:17:53.726Z,14.65
2022-08-26T22:20:24.022Z,14.66
2022-08-26T22:22:52.045Z,14.44
2022-08-26T22:25:20.240Z,14.53
2022-08-26T22:27:48.465Z,14.54
2022-08-26T22:30:16.389Z,14.43
2022-08-26T22:32:45.855Z,14.32
2022-08-26T22:35:29.054Z,14.20
2022-08-26T22:37:59.413Z,14.05
2022-08-26T22:40:27.395Z,13.92
2022-08-26T22:43:00.282Z,14.00
2022-08-26T22:45:29.402Z,14.10
2022-08-26T22:47:57.483Z,13.87
2022-08-26T22:50:25.632Z,13.89
2022-08-26T22:52:53.586Z,13.88
2022-08-26T22:55:22.804Z,13.85
2022-08-26T22:57:51.286Z,13.81
2022-08-26T23:00:19.705Z,13.88
2022-08-26T23:02:59.952Z,13.78
2022-08-26T23:05:28.359Z,13.71
2022-08-26T23:07:56.748Z,13.64
2022-08-26T23:10:28.913Z,13.57
2022-08-26T23:12:57.476Z,13.66
2022-08-26T23:15:26.613Z,13.69
2022-08-26T23:17:58.984Z,13.57
2022-08-26T23:20:28.335Z,13.60
2022-08-26T23:22:56.940Z,13.58
2022-08-26T23:25:32.346Z,13.60
2022-08-26T23:28:01.682Z,13.51
2022-08-26T23:30:32.467Z,13.53
2022-08-26T23:33:00.498Z,13.47
2022-08-26T23:35:28.661Z,13.33
2022-08-26T23:37:57.823Z,13.24
2022-08-26T23:40:32.128Z,13.27
2022-08-26T23:43:03.388Z,13.11
2022-08-26T23:45:32.468Z,13.20
2022-08-26T23:48:00.488Z,13.23
2022-08-26T23:50:44.587Z,13.25
2022-08-26T23:53:19.280Z,13.19
2022-08-26T23:55:50.051Z,13.20
2022-08-26T23:58:19.653Z,13.28
